Sudbury Airport
CYSB : now visible

Airfield :











YOU CAN JOIN US ON...

 
LOGIN :

Register | Disclaimer

   EN    FR    IT 

 









Legend :    VFR   Marginal VFR   IFR   Intensive IFR   Very Intensive IFR
Visi :
Ceiling :
>= 8 km
>= 3000ft
5 to 8 km
1000 to 3000 ft
1500m to 5 km
500 to 1000 ft
800 to 1500m
200 to 500 ft
< 800m
< 200 ft
Symbols :   Thunderstorms  Fog  Heavy snow  Heavy precipitations  Wind > 20 kt






- Airport Elevation : 1141 ft
- IATA code : YSB


CYSB - Sudbury

CURRENT METAR :
  • 192200Z 22015G21KT 20SM FEW060 BKN250 24/12 A3003 RMK SC2CI3 SLP172 DENSITY ALT 2300FT

EXPIRED METARs :
  • 192100Z 22011G19KT 20SM SCT068 24/13 A3004 RMK AC4 SLP178 DENSITY ALT 2300FT
  • 192000Z 21013G20KT 200V260 20SM SCT055 BKN080 23/12 A3005 RMK SC4AC2 SLP181 DENSITY ALT 2200FT
  • 191900Z 22012G19KT 20SM BKN060 24/12 A3007 RMK SC5 SLP185 DENSITY ALT 2400FT
  • 191800Z 21010G19KT 20SM FEW050 SCT250 24/12 A3007 RMK SC2CI2 SLP188 DENSITY ALT 2300FT

TAF TAF CYSB
Valid from the 19 at 20:00 until the 20 at 08:00 UTC


191941Z 1920/2008 23010G20KT P6SM SCT050
BECMG 2000/2002 24012KT
BECMG 2002/2004 24008KT RMK NXT FCST BY 200200Z
CZYZ FIR / North America



MET'MAP, your aeronautical weather chart ! - Copyright ORBIFLY December 2007 - Disclaimer

ORBIFLY MET'MAP TEAM :

Programming & Development : Alexandra Zaïnal
Original concept : Baudouin d'Aumeries
Technical & hardware support : Manuel Goepfert
Assistance : Marc-Olivier Méhu




SOURCES & CREDITS :

   NOAA       Earth
Advisory